Time;durP1;ratioP1;P1;durP2;ratioP2;P2;SDS_P1;SDS_P2;PMS_P1;PMS_P2;Temp;Humidity;BMP_temperature;BMP_pressure;BME280_temperature;BME280_humidity;BME280_pressure;Samples;Min_cycle;Max_cycle;Signal;HPM_P1;HPM_P2
2022/06/16 00:00:55;;;;;;;4.38;2.30;;;;;;;12.88;100.00;101552.81;4949026;28;20038;-80
2022/06/16 00:03:26;;;;;;;3.08;2.20;;;;;;;12.68;100.00;101537.00;4963401;28;20137;-82
2022/06/16 00:05:52;;;;;;;4.25;2.60;;;;;;;12.60;100.00;101541.56;4947597;28;20030;-82
2022/06/16 00:08:18;;;;;;;4.22;2.67;;;;;;;12.44;100.00;101535.16;4983892;28;20030;-79
2022/06/16 00:13:35;;;;;;;6.18;2.53;;;;;;;12.21;100.00;101531.44;4990509;28;20037;-81
2022/06/16 00:16:01;;;;;;;4.18;2.47;;;;;;;12.11;100.00;101534.28;4990083;28;20471;-82
2022/06/16 00:18:27;;;;;;;6.18;2.88;;;;;;;11.68;100.00;101474.25;4974516;28;20061;-81
2022/06/16 00:20:53;;;;;;;7.80;2.70;;;;;;;11.91;100.00;101527.50;4950632;28;20527;-81
2022/06/16 00:23:19;;;;;;;7.28;3.03;;;;;;;11.76;100.00;101524.59;4987682;28;20117;-82
2022/06/16 00:25:45;;;;;;;5.25;2.70;;;;;;;11.55;100.00;101511.59;4992479;28;20117;-88
2022/06/16 00:28:10;;;;;;;4.70;2.40;;;;;;;11.42;100.00;101520.97;4976927;28;20061;-80
2022/06/16 00:30:36;;;;;;;5.63;2.55;;;;;;;11.31;100.00;101528.50;4989625;28;20030;-82
2022/06/16 00:33:02;;;;;;;6.88;2.90;;;;;;;11.12;100.00;101524.22;4952258;28;20121;-79
2022/06/16 00:35:27;;;;;;;5.03;2.40;;;;;;;11.01;100.00;101525.34;4985258;28;20392;-85
2022/06/16 00:37:53;;;;;;;3.75;2.65;;;;;;;10.90;100.00;101528.28;4983486;28;20484;-84
2022/06/16 00:40:18;;;;;;;5.57;3.00;;;;;;;10.78;100.00;101511.56;4984348;28;20041;-80
2022/06/16 00:42:45;;;;;;;6.15;3.00;;;;;;;10.87;100.00;101533.97;4968190;28;20066;-85
2022/06/16 00:45:45;;;;;;;7.00;3.20;;;;;;;10.81;100.00;101531.94;4983476;28;20117;-79
2022/06/16 00:48:15;;;;;;;7.40;3.10;;;;;;;10.67;100.00;101534.19;4985545;28;20033;-81
2022/06/16 00:50:41;;;;;;;7.53;3.45;;;;;;;10.56;100.00;101532.59;4964385;28;20030;-82
2022/06/16 00:53:07;;;;;;;5.35;3.00;;;;;;;10.53;100.00;101538.31;4989784;28;20112;-81
2022/06/16 00:55:34;;;;;;;7.22;3.17;;;;;;;10.55;100.00;101522.84;4982819;28;20614;-83
2022/06/16 00:58:00;;;;;;;3.83;2.83;;;;;;;10.54;100.00;101521.16;4978183;28;20033;-80
2022/06/16 01:00:28;;;;;;;7.18;3.33;;;;;;;10.41;100.00;101503.75;4971696;28;20034;-82
2022/06/16 01:02:54;;;;;;;8.85;3.08;;;;;;;10.43;100.00;101515.22;4982849;28;20041;-83
2022/06/16 01:05:20;;;;;;;8.23;3.70;;;;;;;10.43;100.00;101509.81;4984059;28;20030;-80
2022/06/16 01:07:47;;;;;;;7.68;3.10;;;;;;;10.47;100.00;101509.34;4967821;28;20114;-82
2022/06/16 01:10:14;;;;;;;7.80;3.17;;;;;;;10.56;100.00;101519.16;4982578;28;20037;-83
2022/06/16 01:16:19;;;;;;;4.60;2.90;;;;;;;10.57;100.00;101518.16;4991889;28;20207;-83
2022/06/16 01:19:34;;;;;;;4.97;3.35;;;;;;;10.55;100.00;101532.75;4965494;28;20034;-82
2022/06/16 01:22:38;;;;;;;7.22;3.35;;;;;;;10.43;100.00;101532.19;4968524;28;20465;-82
2022/06/16 01:25:24;;;;;;;7.15;3.20;;;;;;;10.26;100.00;101522.25;4984675;28;20046;-82
2022/06/16 01:28:11;;;;;;;10.38;3.22;;;;;;;10.21;100.00;101528.06;4964338;28;20038;-85
2022/06/16 01:30:41;;;;;;;7.22;3.30;;;;;;;10.18;100.00;101530.22;4984106;28;20129;-82
2022/06/16 01:33:16;;;;;;;5.32;3.53;;;;;;;10.22;100.00;101528.94;4986301;28;20038;-82
2022/06/16 01:36:11;;;;;;;6.93;3.42;;;;;;;10.30;100.00;101537.94;4952759;28;20078;-81
2022/06/16 01:38:43;;;;;;;8.90;3.72;;;;;;;10.43;100.00;101534.88;4969575;28;20042;-80
2022/06/16 01:41:17;;;;;;;6.80;3.28;;;;;;;10.50;100.00;101538.59;4987221;28;20030;-80
2022/06/16 01:43:51;;;;;;;7.50;4.22;;;;;;;10.56;100.00;101527.22;4984355;28;20026;-83
2022/06/16 01:46:24;;;;;;;6.22;3.85;;;;;;;10.74;100.00;101526.31;4982077;28;20176;-84
2022/06/16 01:48:53;;;;;;;7.68;4.40;;;;;;;10.86;100.00;101525.06;4985590;28;20053;-81
2022/06/16 01:51:31;;;;;;;11.20;4.88;;;;;;;10.99;100.00;101520.09;4985650;28;20077;-82
2022/06/16 01:54:18;;;;;;;6.85;4.20;;;;;;;11.16;100.00;101536.31;4970998;28;20379;-83
2022/06/16 01:56:49;;;;;;;7.25;4.63;;;;;;;11.24;100.00;101536.38;4969737;28;20062;-84
2022/06/16 01:59:22;;;;;;;10.25;4.60;;;;;;;11.27;100.00;101546.81;4968915;28;20129;-84
2022/06/16 02:01:50;;;;;;;10.45;4.63;;;;;;;11.29;100.00;101543.97;4964502;28;20767;-85
2022/06/16 02:04:25;;;;;;;7.70;4.40;;;;;;;11.31;100.00;101542.81;4986868;28;20121;-80
2022/06/16 02:06:54;;;;;;;9.63;5.50;;;;;;;11.37;100.00;101542.16;4978341;28;20392;-86
2022/06/16 02:09:27;;;;;;;10.40;5.40;;;;;;;11.45;100.00;101547.56;4967875;28;20129;-81
2022/06/16 02:11:55;;;;;;;11.77;5.32;;;;;;;11.52;100.00;101534.31;4977653;28;20073;-85
2022/06/16 02:14:45;;;;;;;8.77;5.65;;;;;;;11.51;100.00;101524.56;4981498;28;20573;-81
2022/06/16 02:17:10;;;;;;;12.18;5.15;;;;;;;11.50;100.00;101530.09;4974908;28;20034;-80
2022/06/16 02:19:36;;;;;;;10.65;5.65;;;;;;;11.48;100.00;101542.88;4977785;28;20034;-80
2022/06/16 02:22:02;;;;;;;13.77;5.80;;;;;;;11.41;100.00;101532.75;4976410;28;20035;-80
2022/06/16 02:24:28;;;;;;;11.43;5.82;;;;;;;11.37;100.00;101525.16;4976213;28;20027;-80
2022/06/16 02:26:56;;;;;;;10.30;4.90;;;;;;;11.20;100.00;101502.72;4991218;28;20053;-84
2022/06/16 02:29:29;;;;;;;9.75;4.45;;;;;;;11.18;100.00;101494.78;4984290;28;20566;-81
2022/06/16 02:32:04;;;;;;;8.75;4.45;;;;;;;11.29;100.00;101517.88;5001691;28;20034;-85
2022/06/16 02:35:07;;;;;;;10.45;5.40;;;;;;;11.25;100.00;101502.22;4984927;28;20042;-83
2022/06/16 02:37:58;;;;;;;9.13;4.60;;;;;;;11.30;100.00;101483.72;4993418;28;20030;-83
2022/06/16 02:40:49;;;;;;;11.98;4.75;;;;;;;11.31;100.00;101488.94;4990043;28;20091;-85
2022/06/16 02:43:23;;;;;;;10.15;4.50;;;;;;;11.20;100.00;101487.41;4970302;28;20038;-85
2022/06/16 02:46:36;;;;;;;16.00;5.30;;;;;;;11.10;100.00;101491.22;4973907;28;20125;-85
2022/06/16 02:49:21;;;;;;;9.40;4.25;;;;;;;10.96;100.00;101485.44;4978696;28;20484;-85
2022/06/16 02:51:58;;;;;;;9.93;4.43;;;;;;;10.89;100.00;101486.25;4974208;28;20033;-82
2022/06/16 02:54:48;;;;;;;8.00;4.38;;;;;;;10.81;100.00;101497.78;4982829;28;20500;-80
2022/06/16 02:57:14;;;;;;;8.95;4.30;;;;;;;10.74;100.00;101497.59;4969780;28;20037;-82
2022/06/16 02:59:49;;;;;;;7.25;4.70;;;;;;;10.67;100.00;101501.09;4984601;28;20045;-80
2022/06/16 03:02:18;;;;;;;8.10;4.35;;;;;;;10.66;100.00;101504.75;4976591;28;20041;-80
2022/06/16 03:04:47;;;;;;;11.73;4.53;;;;;;;10.65;100.00;101509.31;4962195;28;20529;-79
2022/06/16 03:07:15;;;;;;;10.45;4.80;;;;;;;10.66;100.00;101521.72;4967718;28;20158;-80
2022/06/16 03:09:41;;;;;;;9.80;4.63;;;;;;;10.61;100.00;101523.22;4981188;28;20034;-83
2022/06/16 03:12:08;;;;;;;7.18;3.78;;;;;;;10.58;100.00;101529.75;4955343;28;20034;-82
2022/06/16 03:14:37;;;;;;;9.70;3.88;;;;;;;10.52;100.00;101525.84;4982862;28;20236;-80
2022/06/16 03:17:06;;;;;;;8.80;4.38;;;;;;;10.50;100.00;101521.63;4980493;28;20123;-81
2022/06/16 03:19:32;;;;;;;7.57;4.50;;;;;;;10.50;100.00;101527.00;4964139;28;20388;-80
2022/06/16 03:21:57;;;;;;;9.77;4.35;;;;;;;10.53;100.00;101532.94;4986242;28;20022;-80
2022/06/16 03:24:24;;;;;;;7.25;3.95;;;;;;;10.49;100.00;101512.72;4969511;28;20045;-80
2022/06/16 03:26:50;;;;;;;8.30;4.57;;;;;;;10.47;100.00;101512.03;4985634;28;20034;-86
2022/06/16 03:29:16;;;;;;;6.88;3.67;;;;;;;10.45;100.00;101519.44;4988173;28;20376;-81
2022/06/16 03:31:42;;;;;;;8.82;4.32;;;;;;;10.43;100.00;101524.09;4989548;28;20027;-81
2022/06/16 03:34:08;;;;;;;9.20;4.45;;;;;;;10.38;100.00;101517.50;4970701;28;20038;-81
2022/06/16 03:36:35;;;;;;;6.82;4.35;;;;;;;10.34;100.00;101520.50;4980057;28;20398;-82
2022/06/16 03:39:03;;;;;;;7.88;4.25;;;;;;;10.28;100.00;101534.56;4978310;28;20042;-80
2022/06/16 03:41:29;;;;;;;14.82;4.25;;;;;;;10.32;100.00;101546.72;4977456;28;20121;-81
2022/06/16 03:43:54;;;;;;;14.13;5.25;;;;;;;10.44;100.00;101547.28;4984255;28;20410;-82
2022/06/16 03:46:20;;;;;;;7.35;4.50;;;;;;;10.51;100.00;101552.91;4983937;28;20069;-82
2022/06/16 03:48:46;;;;;;;8.00;4.18;;;;;;;10.59;100.00;101552.13;4985614;28;20392;-83
2022/06/16 03:51:12;;;;;;;14.10;5.03;;;;;;;10.69;100.00;101556.41;4966436;28;20055;-80
2022/06/16 03:53:38;;;;;;;9.95;5.00;;;;;;;10.81;100.00;101554.28;4990437;28;20030;-83
2022/06/16 03:56:04;;;;;;;9.60;4.15;;;;;;;10.94;100.00;101545.81;4974117;28;20039;-79
2022/06/16 03:58:30;;;;;;;7.65;4.60;;;;;;;11.04;100.00;101546.53;4983991;28;20160;-82
2022/06/16 04:00:56;;;;;;;9.80;3.97;;;;;;;11.14;100.00;101539.19;4987068;28;20046;-81
2022/06/16 04:06:06;;;;;;;8.68;4.20;;;;;;;11.30;100.00;101538.44;4986101;28;20043;-82
2022/06/16 04:08:31;;;;;;;7.78;4.15;;;;;;;11.32;100.00;101532.88;4982456;28;20384;-84
2022/06/16 04:10:57;;;;;;;8.95;5.03;;;;;;;11.42;100.00;101538.97;4953359;28;20380;-81
2022/06/16 04:13:23;;;;;;;10.25;4.70;;;;;;;11.44;100.00;101529.72;4991694;28;20041;-80
2022/06/16 04:15:50;;;;;;;11.60;4.95;;;;;;;11.43;100.00;101530.75;4987789;28;20048;-82
2022/06/16 04:18:18;;;;;;;7.70;4.22;;;;;;;11.49;100.00;101523.03;4993086;28;20076;-83
2022/06/16 04:20:46;;;;;;;7.80;4.00;;;;;;;11.55;100.00;101516.97;4994790;28;20096;-80
2022/06/16 04:23:12;;;;;;;10.75;4.55;;;;;;;11.56;100.00;101513.25;4986582;28;20034;-82
2022/06/16 04:25:38;;;;;;;13.32;4.97;;;;;;;11.60;100.00;101504.69;4972725;28;20034;-80
2022/06/16 04:28:06;;;;;;;13.85;4.05;;;;;;;11.66;100.00;101511.28;4990298;28;20069;-81
2022/06/16 04:30:35;;;;;;;13.27;4.30;;;;;;;11.67;100.00;101499.50;4952944;28;20124;-81
2022/06/16 04:33:01;;;;;;;6.50;3.80;;;;;;;11.66;100.00;101492.41;4983129;28;20052;-79
2022/06/16 04:35:27;;;;;;;11.45;3.90;;;;;;;11.66;100.00;101503.19;4985451;28;20031;-79
2022/06/16 04:37:53;;;;;;;6.25;3.40;;;;;;;11.66;100.00;101503.19;5000963;28;20027;-84
2022/06/16 04:40:19;;;;;;;5.82;3.40;;;;;;;11.71;100.00;101497.31;4991196;28;20285;-82
2022/06/16 04:42:45;;;;;;;7.70;3.63;;;;;;;11.81;100.00;101504.25;4984478;28;20104;-83
2022/06/16 04:45:11;;;;;;;7.15;3.22;;;;;;;11.83;100.00;101487.94;4985442;28;20463;-83
2022/06/16 04:47:38;;;;;;;5.93;3.40;;;;;;;11.87;100.00;101484.75;4974552;28;20045;-82
2022/06/16 04:50:05;;;;;;;4.82;3.10;;;;;;;11.85;100.00;101489.44;4975336;28;20033;-79
2022/06/16 04:52:31;;;;;;;9.93;3.65;;;;;;;11.78;100.00;101474.94;4987087;28;20046;-84
2022/06/16 04:54:56;;;;;;;5.15;3.55;;;;;;;11.76;100.00;101478.81;4991766;28;20030;-82
2022/06/16 04:57:22;;;;;;;7.15;3.67;;;;;;;11.67;100.00;101483.34;4958791;28;20365;-82
2022/06/16 04:59:47;;;;;;;6.18;3.67;;;;;;;11.71;100.00;101489.25;4991566;28;20026;-85
2022/06/16 05:02:13;;;;;;;7.00;3.70;;;;;;;11.64;100.00;101484.53;4987474;28;20388;-81
2022/06/16 05:04:39;;;;;;;7.38;3.42;;;;;;;11.69;100.00;101475.91;4988606;28;20069;-82
2022/06/16 05:07:06;;;;;;;6.18;3.83;;;;;;;11.80;100.00;101494.47;4958626;28;20037;-81
2022/06/16 05:09:32;;;;;;;8.82;3.92;;;;;;;11.90;100.00;101499.72;4949492;28;20034;-80
2022/06/16 05:12:00;;;;;;;7.40;3.50;;;;;;;11.95;100.00;101486.59;4984883;28;20062;-83
2022/06/16 05:14:25;;;;;;;8.10;4.22;;;;;;;12.09;100.00;101501.25;4986540;28;20030;-83
2022/06/16 05:16:51;;;;;;;8.43;3.53;;;;;;;12.16;100.00;101491.50;4979910;28;20041;-81
2022/06/16 05:19:17;;;;;;;8.30;3.97;;;;;;;12.18;100.00;101483.25;4978163;28;20073;-80
2022/06/16 05:21:43;;;;;;;6.40;4.20;;;;;;;12.37;100.00;101506.34;4986005;28;20120;-80
2022/06/16 05:24:09;;;;;;;9.98;4.40;;;;;;;12.13;100.00;101453.25;4979929;28;20121;-81
2022/06/16 05:26:35;;;;;;;8.85;4.15;;;;;;;12.47;100.00;101496.22;4980349;28;20030;-82
2022/06/16 05:29:00;;;;;;;7.35;4.05;;;;;;;12.46;100.00;101489.13;4986669;28;20431;-79
2022/06/16 05:31:26;;;;;;;9.77;4.22;;;;;;;12.52;100.00;101486.59;4971585;28;20065;-81
2022/06/16 05:33:51;;;;;;;6.88;3.88;;;;;;;12.50;100.00;101490.47;4963351;28;20090;-80
2022/06/16 05:36:18;;;;;;;6.50;3.92;;;;;;;12.53;100.00;101488.28;4976377;28;20932;-83
2022/06/16 05:38:44;;;;;;;12.10;3.88;;;;;;;12.53;100.00;101482.03;4985257;28;20026;-84
2022/06/16 05:41:17;;;;;;;7.10;4.38;;;;;;;12.53;100.00;101479.34;4967751;28;20483;-85
2022/06/16 05:43:43;;;;;;;5.85;3.13;;;;;;;12.59;100.00;101483.22;4985675;28;20109;-80
2022/06/16 05:46:15;;;;;;;6.32;3.63;;;;;;;12.62;100.00;101466.69;4982400;28;20069;-80
2022/06/16 05:48:41;;;;;;;5.18;3.55;;;;;;;12.75;100.00;101462.44;4962558;28;20034;-81
2022/06/16 05:51:09;;;;;;;6.55;3.70;;;;;;;12.89;100.00;101457.34;4979635;28;20081;-79
2022/06/16 05:53:36;;;;;;;9.10;3.78;;;;;;;13.02;100.00;101452.25;4990039;28;20086;-83
2022/06/16 05:56:02;;;;;;;8.07;3.80;;;;;;;13.08;100.00;101445.28;4954216;28;20074;-83
2022/06/16 05:58:27;;;;;;;8.63;3.67;;;;;;;13.19;100.00;101439.50;4983876;28;20035;-83
2022/06/16 06:00:53;;;;;;;7.43;3.88;;;;;;;13.38;100.00;101443.63;4984441;28;20026;-81
2022/06/16 06:03:19;;;;;;;6.28;3.25;;;;;;;13.54;100.00;101438.13;4963102;28;20050;-83
2022/06/16 06:05:45;;;;;;;7.38;3.38;;;;;;;13.58;100.00;101415.16;4967514;28;20068;-81
2022/06/16 06:16:28;;;;;;;4.80;3.03;;;;;;;14.41;94.98;101454.00;4985101;28;20069;-79
2022/06/16 06:18:59;;;;;;;4.65;3.00;;;;;;;14.50;93.92;101454.75;4986548;28;20027;-84
2022/06/16 06:24:11;;;;;;;7.13;3.50;;;;;;;14.58;92.80;101449.31;4993869;28;20022;-82
2022/06/16 06:26:37;;;;;;;6.53;3.50;;;;;;;14.61;92.54;101445.41;4955340;28;20080;-80
2022/06/16 06:29:04;;;;;;;8.20;3.28;;;;;;;14.68;92.01;101432.78;4967799;28;20066;-80
2022/06/16 06:31:29;;;;;;;6.90;3.30;;;;;;;14.73;91.79;101438.47;4989626;28;20061;-80
2022/06/16 06:33:55;;;;;;;5.60;2.90;;;;;;;14.83;91.08;101433.63;5000178;28;20062;-81
2022/06/16 06:36:21;;;;;;;4.00;2.90;;;;;;;14.90;90.46;101436.44;4963941;28;20049;-79
2022/06/16 06:38:46;;;;;;;6.28;3.20;;;;;;;14.91;90.03;101419.97;4990211;28;20054;-80
2022/06/16 06:41:12;;;;;;;6.88;3.40;;;;;;;15.00;89.71;101426.13;5000840;28;20038;-80
2022/06/16 06:43:37;;;;;;;4.05;2.90;;;;;;;15.06;88.60;101443.50;5001029;28;20080;-80
2022/06/16 06:46:04;;;;;;;7.30;3.80;;;;;;;15.24;88.07;101449.38;4955885;28;20030;-81
2022/06/16 06:48:29;;;;;;;6.35;3.90;;;;;;;15.55;87.29;101453.69;4956734;28;20054;-81
2022/06/16 06:50:55;;;;;;;8.10;4.63;;;;;;;15.85;85.35;101437.31;4970938;28;20145;-84
2022/06/16 06:53:24;;;;;;;11.65;7.07;;;;;;;15.97;84.01;101449.34;4957214;28;20472;-80
2022/06/16 06:55:52;;;;;;;6.40;3.60;;;;;;;15.99;83.24;101444.56;4990400;28;20041;-80
2022/06/16 06:58:19;;;;;;;5.40;3.33;;;;;;;15.90;83.49;101438.41;4955933;28;20042;-82
2022/06/16 07:00:45;;;;;;;6.05;2.88;;;;;;;15.91;83.61;101442.00;4984651;28;20095;-84
2022/06/16 07:03:10;;;;;;;7.07;4.72;;;;;;;15.83;83.50;101449.22;4988180;28;20399;-82
2022/06/16 07:05:37;;;;;;;4.85;2.78;;;;;;;15.80;83.92;101455.03;4974608;28;20042;-84
2022/06/16 07:08:03;;;;;;;5.97;2.80;;;;;;;15.71;83.63;101449.91;4991689;28;20478;-79
2022/06/16 07:10:29;;;;;;;6.05;3.05;;;;;;;15.74;82.81;101471.22;4988310;28;20125;-80
2022/06/16 07:12:57;;;;;;;5.05;2.70;;;;;;;15.75;83.05;101457.47;4961995;28;20046;-79
2022/06/16 07:15:22;;;;;;;4.18;3.13;;;;;;;15.89;82.94;101466.56;4974499;28;20282;-80
2022/06/16 07:17:49;;;;;;;5.15;2.50;;;;;;;16.00;82.55;101457.09;4974942;28;20038;-79
2022/06/16 07:20:16;;;;;;;5.38;2.58;;;;;;;16.08;82.76;101456.94;4972575;28;20097;-80
2022/06/16 07:22:43;;;;;;;13.00;4.13;;;;;;;16.12;82.91;101465.56;4988943;28;20117;-80
2022/06/16 07:25:13;;;;;;;6.03;3.40;;;;;;;16.13;83.28;101470.75;5001666;28;20480;-82
2022/06/16 07:27:39;;;;;;;7.45;2.40;;;;;;;16.01;81.67;101456.91;4968188;28;20051;-84
2022/06/16 07:30:13;;;;;;;4.70;2.55;;;;;;;15.94;81.78;101456.00;4974656;28;20031;-83
2022/06/16 07:32:38;;;;;;;7.47;3.17;;;;;;;15.87;80.97;101454.25;4981887;28;20450;-81
2022/06/16 07:35:04;;;;;;;7.32;4.13;;;;;;;15.81;80.63;101435.00;4986928;28;20197;-79
2022/06/16 07:37:30;;;;;;;5.90;3.28;;;;;;;15.76;80.37;101437.44;4983230;28;20110;-81
2022/06/16 07:39:55;;;;;;;3.03;2.22;;;;;;;15.90;79.78;101445.72;4987129;28;20073;-80
2022/06/16 07:42:21;;;;;;;4.82;3.47;;;;;;;16.07;79.24;101436.28;4982251;28;20049;-83
2022/06/16 07:44:46;;;;;;;5.50;3.13;;;;;;;16.41;77.87;101430.09;4981550;28;20042;-81
2022/06/16 07:47:12;;;;;;;5.18;2.72;;;;;;;17.22;74.84;101425.94;4967405;28;20042;-80
2022/06/16 07:49:42;;;;;;;3.67;2.28;;;;;;;17.75;71.00;101443.22;4990648;28;20026;-79
2022/06/16 07:52:08;;;;;;;5.20;2.45;;;;;;;18.17;69.07;101445.81;4971271;28;20495;-78
2022/06/16 07:54:39;;;;;;;2.97;2.22;;;;;;;18.66;67.01;101448.09;4952287;28;20118;-83
2022/06/16 07:57:05;;;;;;;5.10;2.60;;;;;;;18.94;65.19;101448.88;4991106;28;20117;-85
2022/06/16 07:59:32;;;;;;;4.32;2.97;;;;;;;18.92;65.21;101448.25;4981998;28;20038;-82
2022/06/16 08:01:57;;;;;;;5.03;2.35;;;;;;;18.86;63.50;101437.16;4988372;28;20019;-79
2022/06/16 08:04:23;;;;;;;4.63;2.38;;;;;;;18.83;65.17;101445.75;4975362;28;20112;-80
2022/06/16 08:06:50;;;;;;;3.72;2.55;;;;;;;18.77;64.90;101464.88;4979714;28;20034;-83
2022/06/16 08:09:16;;;;;;;3.30;2.03;;;;;;;18.61;64.44;101457.94;4986396;28;20472;-80
2022/06/16 08:14:30;;;;;;;4.55;2.15;;;;;;;18.38;66.84;101459.22;4976666;28;20128;-82
2022/06/16 08:16:59;;;;;;;3.25;2.22;;;;;;;18.20;66.82;101450.84;4954909;28;20034;-83
2022/06/16 08:19:25;;;;;;;2.72;2.00;;;;;;;17.85;68.11;101444.75;4954432;28;20297;-78
2022/06/16 08:22:14;;;;;;;4.00;2.40;;;;;;;17.55;68.86;101455.97;4987357;28;20109;-80
2022/06/16 08:24:41;;;;;;;4.25;1.92;;;;;;;17.07;71.02;101462.28;4998845;28;20038;-81
2022/06/16 08:27:07;;;;;;;7.75;5.90;;;;;;;16.91;73.05;101481.63;4972446;28;20476;-86
2022/06/16 08:29:36;;;;;;;4.03;2.67;;;;;;;16.75;73.85;101471.00;4990334;28;20061;-79
2022/06/16 08:32:11;;;;;;;9.05;6.75;;;;;;;16.79;74.50;101461.47;4971731;28;20030;-81
2022/06/16 08:34:37;;;;;;;10.63;7.80;;;;;;;17.06;73.93;101466.00;4968092;28;20049;-82
2022/06/16 08:37:08;;;;;;;6.18;3.55;;;;;;;17.44;72.90;101472.84;4990320;28;20030;-81
2022/06/16 08:39:35;;;;;;;7.05;3.65;;;;;;;17.84;71.62;101467.56;4967173;28;20049;-85
2022/06/16 08:42:08;;;;;;;3.38;2.80;;;;;;;18.43;69.82;101467.59;4990149;28;20093;-82
2022/06/16 08:44:34;;;;;;;4.40;2.40;;;;;;;19.11;66.17;101456.38;4965336;28;20060;-81
2022/06/16 08:47:20;;;;;;;4.93;2.80;;;;;;;20.59;59.99;101459.84;4966166;28;20053;-83
2022/06/16 08:50:23;;;;;;;5.80;2.55;;;;;;;22.28;54.10;101461.84;4973992;28;20439;-83
2022/06/16 08:53:15;;;;;;;4.05;2.20;;;;;;;24.24;48.61;101457.38;4983048;28;20156;-83
2022/06/16 08:55:54;;;;;;;4.07;2.10;;;;;;;24.93;46.06;101457.91;4967192;28;20320;-83
2022/06/16 08:58:37;;;;;;;3.78;2.10;;;;;;;26.25;42.29;101454.94;4987241;28;20058;-87
2022/06/16 09:01:14;;;;;;;4.78;3.38;;;;;;;27.03;39.88;101437.75;4973425;28;20034;-80
2022/06/16 09:03:47;;;;;;;2.33;2.00;;;;;;;27.86;37.64;101430.56;4990410;28;20037;-82
2022/06/16 09:06:30;;;;;;;2.30;1.88;;;;;;;28.74;36.82;101432.97;4987835;28;20337;-83
2022/06/16 09:09:15;;;;;;;2.65;1.70;;;;;;;27.81;36.82;101443.28;4991160;28;20399;-86
2022/06/16 09:11:46;;;;;;;4.60;1.90;;;;;;;26.73;39.46;101446.72;4991122;28;20088;-83
2022/06/16 09:18:01;;;;;;;1.98;1.60;;;;;;;24.69;42.62;101445.44;4990697;28;20038;-84
2022/06/16 09:20:29;;;;;;;3.20;1.70;;;;;;;23.94;44.51;101457.72;4973272;28;20484;-83
2022/06/16 09:23:40;;;;;;;5.10;3.25;;;;;;;23.47;45.51;101461.47;4954609;28;20053;-84
2022/06/16 09:26:24;;;;;;;;;;;;;;;23.19;46.80;101468.63;4973868;28;20033;-82
2022/06/16 09:28:58;;;;;;;4.95;2.17;;;;;;;22.96;46.29;101455.78;4992205;28;19940;-80
2022/06/16 09:31:51;;;;;;;2.92;2.45;;;;;;;23.00;46.56;101475.34;4990230;28;20042;-84
2022/06/16 09:34:26;;;;;;;4.28;2.70;;;;;;;23.00;46.51;101461.63;4966484;28;20085;-89
2022/06/16 09:36:57;;;;;;;3.65;2.60;;;;;;;23.10;45.89;101447.28;4990361;28;20030;-82
2022/06/16 09:39:25;;;;;;;4.18;2.17;;;;;;;23.38;44.45;101450.06;4973524;28;20537;-85
2022/06/16 09:45:01;;;;;;;4.90;1.70;;;;;;;23.55;44.74;101444.63;4985369;28;20089;-84
2022/06/16 09:47:31;;;;;;;4.38;1.90;;;;;;;23.69;44.12;101446.00;4987396;28;20061;-84
2022/06/16 09:50:53;;;;;;;3.08;1.40;;;;;;;23.82;43.81;101455.03;4957695;28;20176;-84
2022/06/16 09:53:49;;;;;;;3.28;1.70;;;;;;;24.68;41.51;101452.03;4935138;28;20118;-85
2022/06/16 09:56:22;;;;;;;6.00;2.72;;;;;;;25.98;38.98;101474.25;4988576;28;20081;-84
2022/06/16 09:58:53;;;;;;;2.13;1.35;;;;;;;24.90;40.56;101441.91;4971286;28;20082;-83
2022/06/16 10:01:20;;;;;;;3.63;1.20;;;;;;;24.18;42.15;101464.72;4984260;28;20018;-82
2022/06/16 10:03:49;;;;;;;3.03;1.75;;;;;;;23.46;44.07;101455.16;4957306;28;20053;-87
2022/06/16 10:06:21;;;;;;;2.45;1.48;;;;;;;23.63;43.57;101466.22;4983127;28;20026;-83
2022/06/16 10:08:55;;;;;;;3.92;1.83;;;;;;;24.18;42.96;101469.38;4985453;28;20034;-83
2022/06/16 10:11:38;;;;;;;2.95;1.50;;;;;;;24.69;41.78;101462.78;4990365;28;20030;-82
2022/06/16 10:14:34;;;;;;;4.03;1.90;;;;;;;25.02;41.93;101422.50;4964073;28;20185;-82
2022/06/16 10:17:03;;;;;;;1.98;1.40;;;;;;;25.01;40.72;101451.13;4986690;28;20038;-82
2022/06/16 10:19:31;;;;;;;2.85;1.33;;;;;;;25.10;40.16;101444.06;4959802;28;20049;-82
2022/06/16 10:21:59;;;;;;;2.67;2.00;;;;;;;27.18;36.26;101446.13;4956220;28;20038;-81
2022/06/16 10:24:41;;;;;;;2.47;1.50;;;;;;;28.27;34.28;101446.03;4973846;28;20385;-82
2022/06/16 10:27:09;;;;;;;3.03;1.42;;;;;;;27.55;36.47;101447.91;4989485;28;20526;-82
2022/06/16 10:29:35;;;;;;;2.22;1.33;;;;;;;25.93;38.27;101443.91;4966862;28;20068;-82
2022/06/16 10:32:01;;;;;;;1.60;1.17;;;;;;;25.17;40.22;101449.44;4984591;28;20109;-80
2022/06/16 10:34:36;;;;;;;3.22;1.50;;;;;;;25.68;38.95;101441.72;4969677;28;20444;-83
2022/06/16 10:37:25;;;;;;;1.75;0.90;;;;;;;25.35;37.30;101451.00;4956242;28;20173;-81
2022/06/16 10:40:00;;;;;;;1.63;1.17;;;;;;;24.65;37.93;101447.03;4993093;28;20124;-84
2022/06/16 10:42:42;;;;;;;3.45;1.67;;;;;;;24.54;39.04;101446.91;4976699;28;20038;-83
2022/06/16 10:45:29;;;;;;;3.95;1.60;;;;;;;26.69;36.87;101464.91;4975513;28;20141;-82
2022/06/16 10:48:03;;;;;;;2.88;2.22;;;;;;;29.84;32.24;101455.16;4966242;28;20515;-81
2022/06/16 10:50:41;;;;;;;1.88;1.33;;;;;;;30.32;29.80;101467.25;4991459;28;20042;-83
2022/06/16 10:53:31;;;;;;;2.38;1.92;;;;;;;31.81;28.60;101460.72;4977092;28;20733;-83
2022/06/16 10:56:10;;;;;;;3.15;1.70;;;;;;;30.94;29.10;101464.69;4959220;28;20033;-77
2022/06/16 10:59:00;;;;;;;2.20;1.65;;;;;;;29.54;32.05;101459.75;4984224;28;20428;-76
2022/06/16 11:01:47;;;;;;;2.03;1.40;;;;;;;28.28;34.63;101463.44;4981995;28;20129;-75
2022/06/16 11:04:21;;;;;;;3.35;1.60;;;;;;;27.92;34.41;101455.16;4986235;28;20031;-77
2022/06/16 11:06:55;;;;;;;2.78;1.48;;;;;;;27.70;36.28;101462.84;4984028;28;20026;-80
2022/06/16 11:09:32;;;;;;;4.05;1.52;;;;;;;27.35;36.48;101461.66;4990150;28;20149;-78
2022/06/16 11:12:01;;;;;;;2.03;1.50;;;;;;;27.00;36.57;101470.59;4975721;28;20030;-76
2022/06/16 11:14:40;;;;;;;2.70;1.70;;;;;;;28.26;35.14;101480.31;4971810;28;20100;-76
2022/06/16 11:17:30;;;;;;;1.73;1.40;;;;;;;29.03;33.47;101480.19;4986762;28;20030;-77
2022/06/16 11:20:17;;;;;;;2.13;1.30;;;;;;;29.12;32.73;101486.81;4984403;28;20048;-78
2022/06/16 11:22:45;;;;;;;1.90;1.50;;;;;;;29.79;31.35;101484.56;4985304;28;20046;-76
2022/06/16 11:25:17;;;;;;;2.97;1.20;;;;;;;29.36;33.08;101489.75;4970035;28;20062;-78
2022/06/16 11:28:12;;;;;;;2.33;1.40;;;;;;;28.22;35.60;101498.56;4971867;28;20042;-76
2022/06/16 11:30:53;;;;;;;1.80;1.50;;;;;;;28.58;34.67;101493.06;4987043;28;20069;-76
2022/06/16 11:36:18;;;;;;;3.03;1.75;;;;;;;30.31;32.03;101479.47;4983357;28;20038;-76
2022/06/16 11:38:54;;;;;;;3.92;2.15;;;;;;;29.89;33.15;101458.72;4988436;28;20035;-78
2022/06/16 11:41:22;;;;;;;3.88;1.80;;;;;;;29.92;32.10;101458.13;4990051;28;20026;-76
2022/06/16 11:44:20;;;;;;;2.88;1.80;;;;;;;30.14;31.44;101451.28;4958809;28;20129;-75
2022/06/16 11:46:54;;;;;;;2.63;1.83;;;;;;;29.96;32.93;101463.94;4987532;28;20049;-77
2022/06/16 11:49:39;;;;;;;4.00;1.83;;;;;;;30.83;30.92;101460.34;4989406;28;20038;-79
2022/06/16 11:52:18;;;;;;;1.92;1.60;;;;;;;31.39;30.06;101468.03;4986612;28;20061;-77
2022/06/16 11:55:02;;;;;;;4.15;1.95;;;;;;;32.10;29.34;101466.13;4973730;28;20026;-78
2022/06/16 11:57:36;;;;;;;2.50;1.70;;;;;;;32.54;28.87;101438.91;4988044;28;20074;-78
2022/06/16 12:00:13;;;;;;;1.40;1.30;;;;;;;33.34;27.29;101454.25;4970167;28;20057;-77
2022/06/16 12:02:58;;;;;;;3.00;1.60;;;;;;;33.63;27.32;101456.69;4988540;28;20461;-80
2022/06/16 12:05:42;;;;;;;6.55;1.70;;;;;;;33.34;27.41;101453.44;4987527;28;20042;-79
2022/06/16 12:08:14;;;;;;;4.47;2.00;;;;;;;33.18;28.19;101439.84;4983402;28;20057;-79
2022/06/16 12:10:43;;;;;;;3.45;1.55;;;;;;;33.47;27.35;101452.56;4988179;28;20042;-79
2022/06/16 12:13:27;;;;;;;3.03;1.80;;;;;;;31.67;29.63;101451.47;4986939;28;20050;-79